createdAt,value
2019-01-04T00:01:29.912Z,1.08
2019-01-04T00:04:34.203Z,1.17
2019-01-04T00:07:38.802Z,1.11
2019-01-04T00:10:43.122Z,1.11
2019-01-04T00:13:47.454Z,1.03
2019-01-04T00:16:51.768Z,1.08
2019-01-04T00:19:56.104Z,1.03
2019-01-04T00:23:00.433Z,1.13
2019-01-04T00:26:05.100Z,1.18
2019-01-04T00:29:09.633Z,1.25
2019-01-04T00:32:13.934Z,1.32
2019-01-04T00:35:18.303Z,1.29
2019-01-04T00:38:22.564Z,1.20
2019-01-04T00:41:26.907Z,1.25
2019-01-04T00:44:31.212Z,1.19
2019-01-04T00:47:35.559Z,1.13
2019-01-04T00:50:39.874Z,1.05
2019-01-04T00:53:44.231Z,1.04
2019-01-04T00:57:21.737Z,1.03
2019-01-04T01:01:05.984Z,0.94
2019-01-04T01:04:57.454Z,0.78
2019-01-04T01:08:41.402Z,0.73
2019-01-04T01:12:21.292Z,0.81
2019-01-04T01:16:05.251Z,0.82
2019-01-04T01:19:32.933Z,0.79
2019-01-04T01:23:29.794Z,0.91
2019-01-04T01:27:44.999Z,0.77
2019-01-04T01:31:28.953Z,0.79
2019-01-04T01:35:15.064Z,0.58
2019-01-04T01:38:59.478Z,0.53
2019-01-04T01:42:49.337Z,0.62
2019-01-04T01:46:34.879Z,0.55
2019-01-04T01:50:16.314Z,0.36
2019-01-04T01:53:20.487Z,0.24
2019-01-04T01:56:24.869Z,0.14
2019-01-04T01:59:29.322Z,0.19
2019-01-04T02:02:33.588Z,0.16
2019-01-04T02:05:38.048Z,0.32
2019-01-04T02:08:42.337Z,0.19
2019-01-04T02:11:46.656Z,0.17
2019-01-04T02:14:51.083Z,0.18
2019-01-04T02:17:55.397Z,0.07
2019-01-04T02:20:59.777Z,0.07
2019-01-04T02:24:04.077Z,-0.03
2019-01-04T02:27:08.369Z,-0.05
2019-01-04T02:30:12.716Z,0.03
2019-01-04T02:33:17.107Z,-0.09
2019-01-04T02:36:21.427Z,-0.02
2019-01-04T02:39:25.734Z,0.03
2019-01-04T02:42:30.058Z,0.10
2019-01-04T02:45:34.377Z,0.31
2019-01-04T02:48:38.714Z,0.30
2019-01-04T02:51:42.992Z,0.45
2019-01-04T02:54:47.331Z,0.51
2019-01-04T02:57:51.695Z,0.62
2019-01-04T03:00:56.082Z,0.87
2019-01-04T03:04:00.386Z,0.96
2019-01-04T03:07:04.756Z,1.04
2019-01-04T03:10:09.411Z,1.21
2019-01-04T03:13:13.704Z,1.27
2019-01-04T03:16:18.061Z,1.35
2019-01-04T03:19:22.388Z,1.24
2019-01-04T03:22:26.771Z,1.28
2019-01-04T03:25:31.058Z,1.31
2019-01-04T03:28:35.338Z,1.37
2019-01-04T03:31:39.609Z,1.40
2019-01-04T03:34:43.881Z,1.48
2019-01-04T03:37:48.207Z,1.51
2019-01-04T03:40:52.521Z,1.65
2019-01-04T03:43:56.838Z,1.56
2019-01-04T03:47:01.131Z,1.54
2019-01-04T03:50:05.679Z,1.41
2019-01-04T03:53:09.946Z,1.61
2019-01-04T03:56:14.239Z,1.63
2019-01-04T03:59:18.509Z,1.75
2019-01-04T04:02:22.836Z,1.88
2019-01-04T04:05:27.216Z,1.88
2019-01-04T04:08:31.501Z,1.91
2019-01-04T04:11:35.839Z,1.97
2019-01-04T04:14:40.213Z,1.94
2019-01-04T04:17:44.461Z,1.92
2019-01-04T04:20:48.771Z,1.86
2019-01-04T04:23:53.106Z,1.78
2019-01-04T04:26:57.430Z,1.78
2019-01-04T04:30:01.834Z,1.75
2019-01-04T04:33:06.221Z,1.62
2019-01-04T04:36:10.518Z,1.67
2019-01-04T04:39:14.781Z,1.69
2019-01-04T04:42:19.043Z,1.67
2019-01-04T04:45:23.347Z,1.72
2019-01-04T04:48:27.646Z,1.69
2019-01-04T04:51:32.026Z,1.70
2019-01-04T04:54:36.355Z,1.79
2019-01-04T04:57:40.633Z,1.80
2019-01-04T05:00:45.073Z,1.85
2019-01-04T05:03:49.341Z,1.84
2019-01-04T05:06:53.657Z,1.90
2019-01-04T05:09:58.081Z,1.85
2019-01-04T05:13:02.406Z,1.93
2019-01-04T05:16:06.752Z,1.97
2019-01-04T05:19:11.048Z,2.07
2019-01-04T05:22:15.362Z,2.09
2019-01-04T05:25:19.696Z,2.16
2019-01-04T05:28:24.050Z,2.22
2019-01-04T05:31:28.411Z,2.30
2019-01-04T05:34:32.663Z,2.31
2019-01-04T05:37:37.027Z,2.23
2019-01-04T05:40:41.316Z,2.22
2019-01-04T05:43:45.713Z,2.12
2019-01-04T05:46:50.070Z,2.13
2019-01-04T05:49:54.438Z,2.11
2019-01-04T05:52:58.702Z,2.21
2019-01-04T05:56:03.023Z,2.19
2019-01-04T05:59:07.361Z,2.32
2019-01-04T06:02:12.046Z,2.31
2019-01-04T06:05:16.307Z,2.13
2019-01-04T06:08:20.616Z,2.24
2019-01-04T06:11:24.918Z,2.25
2019-01-04T06:14:29.336Z,2.15
2019-01-04T06:17:33.643Z,2.28
2019-01-04T06:20:37.905Z,2.22
2019-01-04T06:23:42.211Z,2.16
2019-01-04T06:26:46.497Z,2.24
2019-01-04T06:29:50.737Z,2.25
2019-01-04T06:32:55.198Z,2.21
2019-01-04T06:35:59.585Z,2.23
2019-01-04T06:39:05.250Z,2.36
2019-01-04T06:42:09.568Z,2.35
2019-01-04T06:45:14.015Z,2.32
2019-01-04T06:48:18.323Z,2.55
2019-01-04T06:51:27.737Z,2.65
2019-01-04T06:55:04.025Z,2.76
2019-01-04T06:58:08.474Z,2.66
2019-01-04T07:01:12.921Z,2.75
2019-01-04T07:04:18.492Z,2.79
2019-01-04T07:07:22.867Z,2.60
2019-01-04T07:10:27.160Z,2.62
2019-01-04T07:13:31.451Z,2.43
2019-01-04T07:16:35.818Z,2.34
2019-01-04T07:19:40.141Z,2.28
2019-01-04T07:22:44.561Z,2.26
2019-01-04T07:25:48.848Z,2.15
2019-01-04T07:28:53.080Z,2.17
2019-01-04T07:31:57.439Z,2.17
2019-01-04T07:35:03.375Z,2.10
2019-01-04T07:38:07.829Z,2.10
2019-01-04T07:41:12.220Z,1.98
2019-01-04T07:44:16.537Z,1.90
2019-01-04T07:47:21.035Z,1.87
2019-01-04T07:50:25.334Z,1.95
2019-01-04T07:53:31.786Z,1.92
2019-01-04T07:56:36.081Z,1.83
2019-01-04T07:59:40.390Z,1.93
2019-01-04T08:02:49.277Z,1.85
2019-01-04T08:05:58.543Z,1.78
2019-01-04T08:09:04.205Z,1.91
2019-01-04T08:12:08.526Z,1.86
2019-01-04T08:15:13.144Z,1.90
2019-01-04T08:18:17.510Z,2.01
2019-01-04T08:21:21.792Z,2.39
2019-01-04T08:24:26.056Z,2.47
2019-01-04T08:27:30.374Z,2.50
2019-01-04T08:30:34.680Z,2.71
2019-01-04T08:33:38.981Z,2.75
2019-01-04T08:36:43.321Z,2.78
2019-01-04T08:39:47.641Z,2.84
2019-01-04T08:42:51.942Z,2.89
2019-01-04T08:45:56.211Z,2.91
2019-01-04T08:49:00.525Z,3.02
2019-01-04T08:52:04.850Z,3.09
2019-01-04T08:55:23.804Z,3.17
2019-01-04T08:58:28.121Z,3.20
2019-01-04T09:01:32.356Z,3.33
2019-01-04T09:04:36.682Z,3.44
2019-01-04T09:07:40.995Z,3.47
2019-01-04T09:10:45.295Z,3.57
2019-01-04T09:13:49.562Z,3.63
2019-01-04T09:16:53.912Z,3.78
2019-01-04T09:19:58.171Z,3.64
2019-01-04T09:23:04.021Z,3.76
2019-01-04T09:26:08.285Z,3.83
2019-01-04T09:29:12.562Z,3.88
2019-01-04T09:32:16.861Z,3.80
2019-01-04T09:35:21.161Z,3.82
2019-01-04T09:38:25.406Z,3.99
2019-01-04T09:41:32.440Z,4.01
2019-01-04T09:44:36.790Z,4.04
2019-01-04T09:47:41.092Z,3.91
2019-01-04T09:50:45.426Z,4.02
2019-01-04T09:53:49.832Z,3.91
2019-01-04T09:56:54.140Z,3.89
2019-01-04T09:59:58.410Z,3.88
2019-01-04T10:03:02.780Z,3.74
2019-01-04T10:06:09.542Z,3.79
2019-01-04T10:09:13.821Z,3.76
2019-01-04T10:12:18.093Z,3.86
2019-01-04T10:15:22.376Z,3.82
2019-01-04T10:18:26.697Z,3.77
2019-01-04T10:21:30.926Z,3.72
2019-01-04T10:24:35.225Z,3.70
2019-01-04T10:27:39.544Z,3.63
2019-01-04T10:30:43.795Z,3.59
2019-01-04T10:33:48.085Z,3.57
2019-01-04T10:36:52.886Z,3.52
2019-01-04T10:39:57.196Z,3.56
2019-01-04T10:43:01.664Z,3.60
2019-01-04T10:46:06.042Z,3.64
2019-01-04T10:49:10.810Z,3.48
2019-01-04T10:52:15.186Z,3.50
2019-01-04T10:55:19.526Z,3.55
2019-01-04T10:58:23.820Z,3.58
2019-01-04T11:01:28.127Z,3.54
2019-01-04T11:04:32.693Z,3.50
2019-01-04T11:07:37.074Z,3.49
2019-01-04T11:10:41.401Z,3.48
2019-01-04T11:13:45.667Z,3.61
2019-01-04T11:16:49.964Z,3.67
2019-01-04T11:19:54.308Z,3.72
2019-01-04T11:23:05.586Z,3.79
2019-01-04T11:26:23.533Z,3.83
2019-01-04T11:30:03.360Z,3.85
2019-01-04T11:33:25.060Z,3.89
2019-01-04T11:36:39.380Z,3.88
2019-01-04T11:40:07.766Z,3.91
2019-01-04T11:43:45.926Z,3.95
2019-01-04T11:47:00.061Z,3.99
2019-01-04T11:50:45.314Z,4.05
2019-01-04T11:53:49.681Z,4.05
2019-01-04T11:56:54.399Z,4.16
2019-01-04T11:59:59.561Z,4.16
2019-01-04T12:03:03.940Z,4.15
2019-01-04T12:06:08.338Z,4.19
2019-01-04T12:09:12.611Z,4.13
2019-01-04T12:12:16.931Z,4.04
2019-01-04T12:15:21.248Z,4.03
2019-01-04T12:18:25.556Z,3.99
2019-01-04T12:21:29.859Z,3.95
2019-01-04T12:24:34.157Z,3.95
2019-01-04T12:27:38.481Z,3.90
2019-01-04T12:30:42.764Z,3.84
2019-01-04T12:33:47.075Z,3.91
2019-01-04T12:36:51.466Z,3.92
2019-01-04T12:39:55.799Z,3.97
2019-01-04T12:43:00.134Z,4.12
2019-01-04T12:46:04.419Z,4.15
2019-01-04T12:49:08.746Z,4.18
2019-01-04T12:52:13.134Z,4.18
2019-01-04T12:55:17.434Z,4.16
2019-01-04T12:58:21.725Z,4.19
2019-01-04T13:01:26.094Z,4.09
2019-01-04T13:04:30.434Z,4.09
2019-01-04T13:07:34.840Z,4.06
2019-01-04T13:10:39.153Z,3.94
2019-01-04T13:13:43.464Z,3.98
2019-01-04T13:16:47.784Z,3.94
2019-01-04T13:19:52.050Z,3.91
2019-01-04T13:22:56.363Z,3.89
2019-01-04T13:26:00.663Z,3.88
2019-01-04T13:29:04.944Z,3.88
2019-01-04T13:32:09.338Z,3.95
2019-01-04T13:35:13.655Z,3.91
2019-01-04T13:38:20.139Z,3.86
2019-01-04T13:41:24.078Z,3.85
2019-01-04T13:44:28.465Z,3.94
2019-01-04T13:47:32.782Z,3.90
2019-01-04T13:50:37.138Z,3.93
2019-01-04T13:53:41.433Z,3.82
2019-01-04T13:56:45.781Z,3.83
2019-01-04T13:59:50.211Z,3.82
2019-01-04T14:02:54.490Z,3.84
2019-01-04T14:05:58.774Z,3.83
2019-01-04T14:09:03.997Z,3.91
2019-01-04T14:12:08.345Z,3.85
2019-01-04T14:15:12.730Z,3.86
2019-01-04T14:18:17.020Z,3.89
2019-01-04T14:21:21.379Z,3.93
2019-01-04T14:24:25.633Z,3.90
2019-01-04T14:27:30.049Z,3.90
2019-01-04T14:30:34.602Z,3.93
2019-01-04T14:33:38.874Z,3.91
2019-01-04T14:36:43.199Z,3.91
2019-01-04T14:39:47.483Z,3.89
2019-01-04T14:42:51.764Z,3.97
2019-01-04T14:45:56.035Z,4.00
2019-01-04T14:49:00.320Z,3.93
2019-01-04T14:52:04.530Z,3.97
2019-01-04T14:55:08.914Z,3.94
2019-01-04T14:58:13.308Z,4.02
2019-01-04T15:01:17.730Z,4.04
2019-01-04T15:04:22.023Z,4.02
2019-01-04T15:07:26.408Z,4.09
2019-01-04T15:10:30.709Z,4.12
2019-01-04T15:13:35.105Z,4.12
2019-01-04T15:16:39.441Z,4.20
2019-01-04T15:19:43.737Z,4.23
2019-01-04T15:22:48.154Z,4.26
2019-01-04T15:25:52.489Z,4.29
2019-01-04T15:28:56.763Z,4.31
2019-01-04T15:32:02.261Z,4.27
2019-01-04T15:35:06.628Z,4.27
2019-01-04T15:38:12.421Z,4.27
2019-01-04T15:41:16.710Z,4.24
2019-01-04T15:44:21.155Z,4.23
2019-01-04T15:47:25.394Z,4.29
2019-01-04T15:50:29.713Z,4.32
2019-01-04T15:53:34.150Z,4.26
2019-01-04T15:56:38.614Z,4.30
2019-01-04T15:59:42.900Z,4.28
2019-01-04T16:02:47.360Z,4.23
2019-01-04T16:05:51.630Z,4.24
2019-01-04T16:08:55.965Z,4.24
2019-01-04T16:12:00.239Z,4.20
2019-01-04T16:15:06.512Z,4.18
2019-01-04T16:18:10.897Z,4.15
2019-01-04T16:21:15.220Z,4.19
2019-01-04T16:24:19.528Z,4.23
2019-01-04T16:27:23.852Z,4.20
2019-01-04T16:33:46.199Z,4.20
2019-01-04T16:36:50.597Z,4.14
2019-01-04T16:39:57.533Z,4.16
2019-01-04T16:43:04.963Z,4.15
2019-01-04T16:46:08.302Z,4.18
2019-01-04T16:49:12.659Z,4.18
2019-01-04T16:52:17.039Z,4.20
2019-01-04T16:55:23.818Z,4.22
2019-01-04T16:58:28.570Z,4.27
2019-01-04T17:01:33.077Z,4.30
2019-01-04T17:04:37.395Z,4.26
2019-01-04T17:07:41.812Z,4.29
2019-01-04T17:10:46.108Z,4.31
2019-01-04T17:13:50.509Z,4.29
2019-01-04T17:16:54.832Z,4.34
2019-01-04T17:20:01.417Z,4.30
2019-01-04T17:23:05.749Z,4.29
2019-01-04T17:26:10.069Z,4.30
2019-01-04T17:29:14.480Z,4.33
2019-01-04T17:32:18.798Z,4.32
2019-01-04T17:35:23.144Z,4.33
2019-01-04T17:38:30.100Z,4.35
2019-01-04T17:41:34.446Z,4.39
2019-01-04T17:44:38.717Z,4.39
2019-01-04T17:47:43.173Z,4.39
2019-01-04T17:50:47.469Z,4.44
2019-01-04T17:53:51.768Z,4.51
2019-01-04T17:56:56.078Z,4.48
2019-01-04T18:00:00.394Z,4.45
2019-01-04T18:03:06.718Z,4.51
2019-01-04T18:06:11.048Z,4.46
2019-01-04T18:09:15.335Z,4.51
2019-01-04T18:12:19.648Z,4.50
2019-01-04T18:15:25.072Z,4.47
2019-01-04T18:18:29.399Z,4.50
2019-01-04T18:21:33.855Z,4.52
2019-01-04T18:24:38.174Z,4.50
2019-01-04T18:27:42.609Z,4.54
2019-01-04T18:30:47.000Z,4.52
2019-01-04T18:33:51.378Z,4.57
2019-01-04T18:36:55.862Z,4.59
2019-01-04T18:40:00.377Z,4.51
2019-01-04T18:43:04.863Z,4.54
2019-01-04T18:46:09.290Z,4.53
2019-01-04T18:49:13.632Z,4.50
2019-01-04T18:52:18.056Z,4.53
2019-01-04T18:55:22.412Z,4.59
2019-01-04T18:58:26.730Z,4.61
2019-01-04T19:01:31.005Z,4.60
2019-01-04T19:04:37.186Z,4.68
2019-01-04T19:07:41.437Z,4.73
2019-01-04T19:10:45.873Z,4.68
2019-01-04T19:13:50.171Z,4.71
2019-01-04T19:16:54.502Z,4.74
2019-01-04T19:19:58.907Z,4.77
2019-01-04T19:23:03.329Z,4.80
2019-01-04T19:26:07.612Z,4.79
2019-01-04T19:29:12.004Z,4.79
2019-01-04T19:32:16.278Z,4.86
2019-01-04T19:35:20.633Z,4.83
2019-01-04T19:38:24.893Z,4.84
2019-01-04T19:41:29.254Z,4.92
2019-01-04T19:44:33.567Z,4.88
2019-01-04T19:47:37.864Z,4.95
2019-01-04T19:50:42.210Z,5.01
2019-01-04T19:53:46.543Z,4.98
2019-01-04T19:56:50.876Z,5.03
2019-01-04T19:59:55.343Z,5.05
2019-01-04T20:02:59.598Z,5.06
2019-01-04T20:07:17.706Z,5.06
2019-01-04T20:11:06.879Z,5.08
2019-01-04T20:15:05.608Z,5.07
2019-01-04T20:18:34.506Z,5.13
2019-01-04T20:22:10.052Z,5.10
2019-01-04T20:25:45.251Z,5.12
2019-01-04T20:29:22.137Z,5.17
2019-01-04T20:32:58.946Z,5.19
2019-01-04T20:36:20.599Z,5.22
2019-01-04T20:39:49.914Z,5.25
2019-01-04T20:43:05.499Z,5.32
2019-01-04T20:46:28.543Z,5.31
2019-01-04T20:49:50.442Z,5.37
2019-01-04T20:53:19.878Z,5.42
2019-01-04T20:56:44.357Z,5.36
2019-01-04T21:00:10.373Z,5.40
2019-01-04T21:03:42.852Z,5.40
2019-01-04T21:07:00.677Z,5.41
2019-01-04T21:10:35.263Z,5.38
2019-01-04T21:14:04.367Z,5.42
2019-01-04T21:17:50.490Z,5.45
2019-01-04T21:21:06.604Z,5.46
2019-01-04T21:24:26.837Z,5.54
2019-01-04T21:27:44.877Z,5.53
2019-01-04T21:31:26.079Z,5.60
2019-01-04T21:34:48.002Z,5.50
2019-01-04T21:38:09.634Z,5.54
2019-01-04T21:41:32.842Z,5.48
2019-01-04T21:45:07.975Z,5.48
2019-01-04T21:48:29.973Z,5.51
2019-01-04T21:51:56.377Z,5.50
2019-01-04T21:55:18.226Z,5.52
2019-01-04T21:58:40.111Z,5.51
2019-01-04T22:02:08.983Z,5.50
2019-01-04T22:05:30.623Z,5.52
2019-01-04T22:08:56.566Z,5.54
2019-01-04T22:12:29.069Z,5.53
2019-01-04T22:15:50.664Z,5.57
2019-01-04T22:19:19.922Z,5.61
2019-01-04T22:22:47.634Z,5.56
2019-01-04T22:26:09.675Z,5.57
2019-01-04T22:29:31.762Z,5.61
2019-01-04T22:33:01.259Z,5.61
2019-01-04T22:36:16.272Z,5.61
2019-01-04T22:39:37.933Z,5.54
2019-01-04T22:43:04.148Z,5.64
2019-01-04T22:46:26.091Z,5.62
2019-01-04T22:50:07.267Z,5.63
2019-01-04T22:53:31.267Z,5.63
2019-01-04T22:56:54.582Z,5.64
2019-01-04T23:00:16.206Z,5.63
2019-01-04T23:03:51.366Z,5.63
2019-01-04T23:07:13.312Z,5.69
2019-01-04T23:10:48.806Z,5.71
2019-01-04T23:14:10.507Z,5.74
2019-01-04T23:17:34.771Z,5.71
2019-01-04T23:21:07.185Z,5.74
2019-01-04T23:24:33.402Z,5.75
2019-01-04T23:28:11.543Z,5.75
2019-01-04T23:31:33.359Z,5.72
2019-01-04T23:35:11.947Z,5.70
2019-01-04T23:38:30.191Z,5.70
2019-01-04T23:41:55.445Z,5.67
2019-01-04T23:45:18.683Z,5.65
2019-01-04T23:48:40.703Z,5.67
2019-01-04T23:52:02.295Z,5.65
2019-01-04T23:55:24.137Z,5.71
2019-01-04T23:59:02.301Z,5.72
